Time;durP1;ratioP1;P1;durP2;ratioP2;P2;SDS_P1;SDS_P2;PMS_P1;PMS_P2;Temp;Humidity;BMP_temperature;BMP_pressure;BME280_temperature;BME280_humidity;BME280_pressure;Samples;Min_cycle;Max_cycle;Signal;HPM_P1;HPM_P2
2022/08/15 00:00:40;;;;;;;3.50;2.83;;;;;;;;;;5041413;28;20219;-70
2022/08/15 00:03:06;;;;;;;3.35;3.03;;;;;;;;;;5040924;28;20197;-70
2022/08/15 00:05:33;;;;;;;3.58;3.28;;;;;;;;;;5041081;28;20270;-69
2022/08/15 00:08:01;;;;;;;3.47;3.20;;;;;;;;;;5040905;28;20424;-69
2022/08/15 00:10:27;;;;;;;6.65;2.92;;;;;;;;;;5040922;28;20408;-70
2022/08/15 00:12:55;;;;;;;4.07;2.60;;;;;;;;;;5040900;28;20374;-70
2022/08/15 00:15:21;;;;;;;3.70;2.95;;;;;;;;;;5040993;28;20421;-70
2022/08/15 00:17:48;;;;;;;3.80;2.78;;;;;;;;;;5040417;28;20205;-70
2022/08/15 00:20:15;;;;;;;4.13;3.13;;;;;;;;;;5040782;28;20536;-70
2022/08/15 00:22:46;;;;;;;4.10;3.00;;;;;;;;;;5040715;28;20205;-70
2022/08/15 00:25:14;;;;;;;3.65;3.15;;;;;;;;;;5040802;28;20204;-70
2022/08/15 00:27:40;;;;;;;3.35;3.05;;;;;;;;;;5040291;28;20202;-70
2022/08/15 00:30:08;;;;;;;5.47;3.28;;;;;;;;;;5040664;28;20538;-70
2022/08/15 00:32:36;;;;;;;4.65;3.50;;;;;;;;;;5040403;28;20197;-70
2022/08/15 00:35:03;;;;;;;6.03;3.17;;;;;;;;;;5040661;28;20393;-70
2022/08/15 00:37:29;;;;;;;4.13;3.38;;;;;;;;;;5040382;28;20419;-70
2022/08/15 00:39:56;;;;;;;3.65;3.40;;;;;;;;;;5040377;28;20221;-70
2022/08/15 00:42:24;;;;;;;4.53;3.08;;;;;;;;;;5040459;28;20197;-70
2022/08/15 00:44:54;;;;;;;4.75;3.63;;;;;;;;;;5040196;28;20394;-69
2022/08/15 00:47:22;;;;;;;4.88;3.45;;;;;;;;;;5040231;28;20197;-69
2022/08/15 00:49:48;;;;;;;5.30;3.22;;;;;;;;;;5040449;28;20553;-69
2022/08/15 00:52:21;;;;;;;3.20;3.00;;;;;;;;;;5039938;28;20197;-70
2022/08/15 00:54:49;;;;;;;3.88;3.30;;;;;;;;;;5040095;28;20206;-70
2022/08/15 00:57:17;;;;;;;3.97;3.38;;;;;;;;;;5039821;28;20228;-70
2022/08/15 00:59:47;;;;;;;3.47;3.28;;;;;;;;;;5040290;28;20226;-70
2022/08/15 01:02:16;;;;;;;4.10;3.63;;;;;;;;;;5040356;28;20197;-70
2022/08/15 01:04:42;;;;;;;3.35;3.17;;;;;;;;;;5040010;28;20235;-70
2022/08/15 01:07:09;;;;;;;5.10;3.25;;;;;;;;;;5039776;28;20205;-70
2022/08/15 01:09:36;;;;;;;4.72;3.03;;;;;;;;;;5039880;28;20219;-70
2022/08/15 01:12:05;;;;;;;5.20;3.63;;;;;;;;;;5039762;28;20520;-69
2022/08/15 01:14:32;;;;;;;3.35;3.13;;;;;;;;;;5040012;28;20557;-69
2022/08/15 01:16:59;;;;;;;6.00;3.47;;;;;;;;;;5039902;28;20241;-69
2022/08/15 01:19:27;;;;;;;6.47;3.70;;;;;;;;;;5040108;28;20213;-69
2022/08/15 01:22:01;;;;;;;3.38;3.17;;;;;;;;;;5039754;28;20201;-69
2022/08/15 01:24:34;;;;;;;4.22;3.78;;;;;;;;;;5039717;28;20202;-69
2022/08/15 01:27:01;;;;;;;4.50;3.70;;;;;;;;;;5039585;28;20232;-69
2022/08/15 01:29:27;;;;;;;6.53;3.58;;;;;;;;;;5039877;28;20194;-69
2022/08/15 01:31:53;;;;;;;4.75;3.78;;;;;;;;;;5039686;28;20197;-69
2022/08/15 01:34:20;;;;;;;5.97;3.40;;;;;;;;;;5039786;28;20205;-70
2022/08/15 01:36:47;;;;;;;5.03;3.20;;;;;;;;;;5039515;28;20290;-70
2022/08/15 01:39:17;;;;;;;3.58;3.03;;;;;;;;;;5039350;28;20221;-69
2022/08/15 01:41:49;;;;;;;4.07;3.42;;;;;;;;;;5039848;28;20193;-70
2022/08/15 01:44:19;;;;;;;5.35;3.55;;;;;;;;;;5039980;28;20242;-70
2022/08/15 01:46:48;;;;;;;4.15;3.30;;;;;;;;;;5039228;28;20509;-70
2022/08/15 01:49:17;;;;;;;5.13;3.30;;;;;;;;;;5038712;28;20204;-70
2022/08/15 01:51:43;;;;;;;4.22;3.40;;;;;;;;;;5039327;28;20412;-70
2022/08/15 01:54:11;;;;;;;5.70;3.58;;;;;;;;;;5039376;28;20242;-70
2022/08/15 01:56:39;;;;;;;3.75;3.45;;;;;;;;;;5039673;28;20202;-70
2022/08/15 01:59:08;;;;;;;3.33;3.13;;;;;;;;;;5039175;28;20217;-69
2022/08/15 02:01:40;;;;;;;9.25;3.50;;;;;;;;;;5039467;28;20419;-69
2022/08/15 02:04:06;;;;;;;3.45;3.13;;;;;;;;;;5039910;28;20197;-69
2022/08/15 02:06:33;;;;;;;3.70;3.38;;;;;;;;;;5042631;28;20218;-70
2022/08/15 02:09:01;;;;;;;8.13;3.40;;;;;;;;;;5042831;28;20424;-70
2022/08/15 02:11:29;;;;;;;4.40;3.45;;;;;;;;;;5042532;28;20220;-70
2022/08/15 02:13:56;;;;;;;3.40;3.20;;;;;;;;;;5042833;28;20443;-70
2022/08/15 02:16:25;;;;;;;6.22;3.45;;;;;;;;;;5042607;28;20258;-70
2022/08/15 02:18:52;;;;;;;5.22;2.90;;;;;;;;;;5042527;28;20242;-70
2022/08/15 02:21:18;;;;;;;6.25;3.30;;;;;;;;;;5042649;28;20430;-70
2022/08/15 02:23:44;;;;;;;2.97;2.60;;;;;;;;;;5042502;28;20392;-70
2022/08/15 02:26:11;;;;;;;6.18;3.25;;;;;;;;;;5042215;28;20219;-70
2022/08/15 02:28:39;;;;;;;3.75;3.40;;;;;;;;;;5042670;28;20559;-70
2022/08/15 02:31:10;;;;;;;4.55;3.05;;;;;;;;;;5042510;28;20194;-70
2022/08/15 02:33:38;;;;;;;3.38;3.13;;;;;;;;;;5042358;28;20572;-70
2022/08/15 02:36:04;;;;;;;3.92;3.05;;;;;;;;;;5042127;28;20218;-70
2022/08/15 02:38:31;;;;;;;3.20;2.97;;;;;;;;;;5042093;28;20201;-70
2022/08/15 02:40:58;;;;;;;4.07;3.13;;;;;;;;;;5042328;28;20578;-70
2022/08/15 02:43:24;;;;;;;3.47;3.20;;;;;;;;;;5042284;28;20524;-70
2022/08/15 02:45:51;;;;;;;5.15;3.47;;;;;;;;;;5042240;28;20235;-70
2022/08/15 02:48:18;;;;;;;5.47;3.20;;;;;;;;;;5042135;28;20197;-70
2022/08/15 02:50:45;;;;;;;7.03;3.40;;;;;;;;;;5042050;28;20489;-70
2022/08/15 02:53:13;;;;;;;3.83;3.25;;;;;;;;;;5041894;28;20205;-70
2022/08/15 02:55:40;;;;;;;3.92;3.58;;;;;;;;;;5042142;28;20387;-70
2022/08/15 02:58:07;;;;;;;4.03;3.08;;;;;;;;;;5041659;28;20197;-70
2022/08/15 03:00:33;;;;;;;5.18;3.42;;;;;;;;;;5042034;28;20454;-70
2022/08/15 03:03:00;;;;;;;3.70;3.33;;;;;;;;;;5041840;28;20202;-70
2022/08/15 03:05:29;;;;;;;6.40;3.65;;;;;;;;;;5041908;28;20218;-70
2022/08/15 03:07:57;;;;;;;6.20;3.58;;;;;;;;;;5041328;28;20197;-70
2022/08/15 03:10:23;;;;;;;4.00;3.40;;;;;;;;;;5041707;28;20197;-70
2022/08/15 03:12:53;;;;;;;9.57;3.38;;;;;;;;;;5042007;28;20505;-70
2022/08/15 03:15:20;;;;;;;3.85;3.22;;;;;;;;;;5041297;28;20205;-70
2022/08/15 03:17:46;;;;;;;4.07;3.65;;;;;;;;;;5041449;28;20213;-70
2022/08/15 03:20:12;;;;;;;9.18;4.10;;;;;;;;;;5041543;28;20274;-70
2022/08/15 03:22:42;;;;;;;9.30;4.03;;;;;;;;;;5041642;28;20201;-70
2022/08/15 03:25:10;;;;;;;4.45;3.58;;;;;;;;;;5041757;28;20206;-70
2022/08/15 03:27:36;;;;;;;5.07;3.97;;;;;;;;;;5041550;28;20549;-70
2022/08/15 03:30:04;;;;;;;4.43;3.47;;;;;;;;;;5041538;28;20193;-70
2022/08/15 03:32:30;;;;;;;5.47;3.85;;;;;;;;;;5041314;28;20219;-70
2022/08/15 03:34:57;;;;;;;6.20;3.92;;;;;;;;;;5041317;28;20394;-70
2022/08/15 03:37:23;;;;;;;3.90;3.50;;;;;;;;;;5041343;28;20220;-69
2022/08/15 03:39:49;;;;;;;4.25;3.47;;;;;;;;;;5041174;28;20263;-70
2022/08/15 03:42:17;;;;;;;3.95;3.58;;;;;;;;;;5041394;28;20197;-70
2022/08/15 03:44:43;;;;;;;5.78;3.67;;;;;;;;;;5041229;28;20225;-70
2022/08/15 03:47:10;;;;;;;8.23;5.78;;;;;;;;;;5040935;28;20197;-69
2022/08/15 03:49:36;;;;;;;4.97;4.15;;;;;;;;;;5041541;28;20329;-69
2022/08/15 03:52:05;;;;;;;6.78;3.40;;;;;;;;;;5041156;28;20198;-69
2022/08/15 03:54:31;;;;;;;4.95;3.40;;;;;;;;;;5041038;28;20246;-69
2022/08/15 03:56:57;;;;;;;6.72;3.60;;;;;;;;;;5040908;28;20374;-69
2022/08/15 03:59:25;;;;;;;3.92;2.92;;;;;;;;;;5040977;28;20243;-69
2022/08/15 04:01:51;;;;;;;6.00;3.15;;;;;;;;;;5040906;28;20201;-69
2022/08/15 04:04:17;;;;;;;4.70;2.80;;;;;;;;;;5040839;28;20206;-69
2022/08/15 04:06:44;;;;;;;5.35;2.78;;;;;;;;;;5040222;28;20217;-69
2022/08/15 04:09:10;;;;;;;3.13;2.83;;;;;;;;;;5040742;28;20212;-69
2022/08/15 04:11:36;;;;;;;3.45;3.15;;;;;;;;;;5040926;28;20197;-69
2022/08/15 04:14:06;;;;;;;2.80;2.60;;;;;;;;;;5040740;28;20198;-69
2022/08/15 04:16:33;;;;;;;2.55;2.45;;;;;;;;;;5040306;28;20212;-69
2022/08/15 04:19:00;;;;;;;6.07;2.97;;;;;;;;;;5041046;28;20243;-69
2022/08/15 04:21:26;;;;;;;2.95;2.60;;;;;;;;;;5040952;28;20646;-69
2022/08/15 04:23:52;;;;;;;2.80;2.50;;;;;;;;;;5040813;28;20198;-70
2022/08/15 04:26:18;;;;;;;3.53;2.50;;;;;;;;;;5040116;28;20235;-70
2022/08/15 04:28:45;;;;;;;4.53;2.67;;;;;;;;;;5039999;28;20235;-70
2022/08/15 04:31:14;;;;;;;6.95;3.28;;;;;;;;;;5040388;28;20231;-70
2022/08/15 04:33:44;;;;;;;5.45;2.90;;;;;;;;;;5040695;28;20202;-70
2022/08/15 04:36:11;;;;;;;8.27;6.38;;;;;;;;;;5040423;28;20205;-70
2022/08/15 04:38:39;;;;;;;5.55;2.97;;;;;;;;;;5040334;28;20218;-70
2022/08/15 04:41:05;;;;;;;5.07;3.22;;;;;;;;;;5040407;28;20222;-70
2022/08/15 04:43:32;;;;;;;9.85;7.65;;;;;;;;;;5040107;28;20190;-70
2022/08/15 04:45:59;;;;;;;3.60;2.25;;;;;;;;;;5040249;28;20205;-70
2022/08/15 04:48:25;;;;;;;5.30;3.17;;;;;;;;;;5040408;28;20235;-69
2022/08/15 04:50:54;;;;;;;3.65;3.05;;;;;;;;;;5040381;28;20432;-69
2022/08/15 04:53:22;;;;;;;2.78;2.30;;;;;;;;;;5040195;28;20209;-70
2022/08/15 04:55:49;;;;;;;5.13;2.60;;;;;;;;;;5040377;28;20198;-60
2022/08/15 04:58:15;;;;;;;2.55;2.28;;;;;;;;;;5039700;28;20520;-61
2022/08/15 05:00:44;;;;;;;6.32;2.53;;;;;;;;;;5040001;28;20258;-61
2022/08/15 05:03:11;;;;;;;5.32;2.28;;;;;;;;;;5040185;28;20235;-61
2022/08/15 05:05:38;;;;;;;2.55;2.45;;;;;;;;;;5039987;28;20218;-61
2022/08/15 05:08:06;;;;;;;3.72;2.33;;;;;;;;;;5039602;28;20243;-59
2022/08/15 05:10:32;;;;;;;4.18;2.60;;;;;;;;;;5039492;28;20501;-61
2022/08/15 05:13:07;;;;;;;3.35;2.30;;;;;;;;;;5039385;28;20193;-61
2022/08/15 05:15:33;;;;;;;3.83;3.35;;;;;;;;;;5039227;28;20229;-62
2022/08/15 05:18:00;;;;;;;3.03;2.15;;;;;;;;;;5039185;28;20197;-61
2022/08/15 05:20:26;;;;;;;2.25;2.10;;;;;;;;;;5039279;28;20221;-61
2022/08/15 05:22:53;;;;;;;2.38;2.28;;;;;;;;;;5039217;28;20558;-61
2022/08/15 05:25:21;;;;;;;1.95;1.85;;;;;;;;;;5039111;28;20324;-61
2022/08/15 05:27:47;;;;;;;2.20;2.20;;;;;;;;;;5039189;28;20630;-61
2022/08/15 05:30:14;;;;;;;4.10;2.28;;;;;;;;;;5039182;28;20265;-61
2022/08/15 05:32:40;;;;;;;7.38;2.33;;;;;;;;;;5039249;28;20206;-61
2022/08/15 05:35:06;;;;;;;8.73;2.40;;;;;;;;;;5039015;28;20205;-61
2022/08/15 05:37:33;;;;;;;8.07;2.58;;;;;;;;;;5038792;28;20197;-61
2022/08/15 05:39:59;;;;;;;31.75;3.08;;;;;;;;;;5038679;28;20202;-61
2022/08/15 05:42:34;;;;;;;154.98;6.88;;;;;;;;;;5039111;28;20205;-61
2022/08/15 05:45:05;;;;;;;4.15;2.08;;;;;;;;;;5038886;28;20550;-63
2022/08/15 05:47:34;;;;;;;7.25;2.00;;;;;;;;;;5038688;28;20205;-61
2022/08/15 05:50:06;;;;;;;3.60;2.30;;;;;;;;;;5038648;28;20205;-62
2022/08/15 05:52:35;;;;;;;12.40;2.22;;;;;;;;;;5038918;28;20238;-63
2022/08/15 05:55:06;;;;;;;2.85;1.77;;;;;;;;;;5038714;28;20254;-62
2022/08/15 05:57:36;;;;;;;7.18;2.05;;;;;;;;;;5038666;28;20225;-63
2022/08/15 06:00:05;;;;;;;3.05;1.98;;;;;;;;;;5038861;28;20202;-62
2022/08/15 06:02:33;;;;;;;13.45;2.55;;;;;;;;;;5038705;28;20494;-61
2022/08/15 06:05:03;;;;;;;14.52;2.40;;;;;;;;;;5038562;28;20540;-61
2022/08/15 06:07:29;;;;;;;291.60;14.52;;;;;;;;;;5038466;28;20600;-61
2022/08/15 06:09:58;;;;;;;303.88;11.73;;;;;;;;;;5038757;28;20197;-62
2022/08/15 06:12:27;;;;;;;80.55;4.40;;;;;;;;;;5038789;28;20201;-62
2022/08/15 06:14:58;;;;;;;11.70;2.45;;;;;;;;;;5038577;28;20202;-62
2022/08/15 06:17:26;;;;;;;7.07;2.67;;;;;;;;;;5038279;28;20273;-62
2022/08/15 06:19:53;;;;;;;25.70;3.47;;;;;;;;;;5038833;28;20221;-62
2022/08/15 06:22:32;;;;;;;4.20;1.70;;;;;;;;;;5038314;28;20225;-62
2022/08/15 06:25:06;;;;;;;37.88;4.20;;;;;;;;;;5038482;28;20205;-61
2022/08/15 06:27:37;;;;;;;3.47;2.00;;;;;;;;;;5038179;28;20501;-62
2022/08/15 06:30:07;;;;;;;9.30;1.90;;;;;;;;;;5038283;28;20198;-62
2022/08/15 06:32:38;;;;;;;2.50;1.75;;;;;;;;;;5038456;28;20210;-62
2022/08/15 06:35:07;;;;;;;2.72;2.53;;;;;;;;;;5038380;28;20557;-62
2022/08/15 06:37:47;;;;;;;4.88;2.05;;;;;;;;;;5038071;28;20294;-62
2022/08/15 06:40:17;;;;;;;4.22;1.90;;;;;;;;;;5038008;28;20219;-62
2022/08/15 06:42:44;;;;;;;18.05;2.42;;;;;;;;;;5038144;28;20242;-62
2022/08/15 06:45:16;;;;;;;21.90;2.92;;;;;;;;;;5038192;28;20235;-62
2022/08/15 06:47:43;;;;;;;3.75;1.73;;;;;;;;;;5037989;28;20198;-62
2022/08/15 06:50:13;;;;;;;2.30;1.67;;;;;;;;;;5038827;28;20558;-61
2022/08/15 06:52:40;;;;;;;11.10;2.20;;;;;;;;;;5041377;28;20197;-62
2022/08/15 06:55:07;;;;;;;14.25;2.83;;;;;;;;;;5041136;28;20213;-62
2022/08/15 06:57:37;;;;;;;12.60;2.70;;;;;;;;;;5041332;28;20202;-62
2022/08/15 07:00:07;;;;;;;3.15;1.58;;;;;;;;;;5041430;28;20219;-61
2022/08/15 07:02:47;;;;;;;9.02;2.60;;;;;;;;;;5041199;28;20289;-60
2022/08/15 07:05:14;;;;;;;3.20;2.20;;;;;;;;;;5041273;28;20217;-64
2022/08/15 07:07:43;;;;;;;3.42;1.77;;;;;;;;;;5041581;28;20226;-62
2022/08/15 07:10:15;;;;;;;16.90;2.47;;;;;;;;;;5041950;28;20197;-61
2022/08/15 07:12:45;;;;;;;11.48;2.45;;;;;;;;;;5041487;28;20198;-61
2022/08/15 07:15:14;;;;;;;5.13;2.03;;;;;;;;;;5042877;28;20235;-63
2022/08/15 07:17:43;;;;;;;3.42;2.13;;;;;;;;;;5041623;28;20197;-61
2022/08/15 07:20:11;;;;;;;6.30;2.38;;;;;;;;;;5041630;28;20198;-62
2022/08/15 07:22:39;;;;;;;8.73;2.40;;;;;;;;;;5041388;28;20266;-62
2022/08/15 07:25:09;;;;;;;6.35;2.03;;;;;;;;;;5041599;28;20264;-62
2022/08/15 07:27:36;;;;;;;16.58;2.65;;;;;;;;;;5041367;28;20404;-62
2022/08/15 07:30:06;;;;;;;24.15;2.75;;;;;;;;;;5041390;28;20198;-61
2022/08/15 07:32:45;;;;;;;5.25;2.10;;;;;;;;;;5041265;28;20206;-62
2022/08/15 07:35:19;;;;;;;11.27;2.50;;;;;;;;;;5041320;28;20198;-61
2022/08/15 07:37:50;;;;;;;35.80;3.13;;;;;;;;;;5041155;28;20400;-61
2022/08/15 07:40:18;;;;;;;4.32;1.90;;;;;;;;;;5041258;28;20206;-62
2022/08/15 07:42:46;;;;;;;2.13;2.00;;;;;;;;;;5040968;28;20229;-62
2022/08/15 07:45:15;;;;;;;3.70;2.30;;;;;;;;;;5041079;28;20242;-62
2022/08/15 07:47:54;;;;;;;2.25;1.85;;;;;;;;;;5041048;28;20505;-62
2022/08/15 07:50:26;;;;;;;3.67;1.98;;;;;;;;;;5041550;28;20197;-61
2022/08/15 07:52:55;;;;;;;2.22;2.00;;;;;;;;;;5041170;28;20421;-62
2022/08/15 07:55:21;;;;;;;3.80;1.85;;;;;;;;;;5040853;28;20235;-62
2022/08/15 07:57:59;;;;;;;2.47;1.75;;;;;;;;;;5041038;28;20198;-61
2022/08/15 08:00:27;;;;;;;1.85;1.70;;;;;;;;;;5041011;28;20234;-61
2022/08/15 08:02:56;;;;;;;1.75;1.70;;;;;;;;;;5039493;28;20221;-61
2022/08/15 08:05:25;;;;;;;1.38;1.30;;;;;;;;;;5040928;28;20287;-61
2022/08/15 08:07:53;;;;;;;1.40;1.40;;;;;;;;;;5040526;28;20242;-61
2022/08/15 08:10:24;;;;;;;4.55;1.80;;;;;;;;;;5040994;28;20411;-62
2022/08/15 08:12:58;;;;;;;2.72;1.52;;;;;;;;;;5040896;28;20306;-62
2022/08/15 08:15:27;;;;;;;1.65;1.55;;;;;;;;;;5040851;28;20259;-62
2022/08/15 08:17:58;;;;;;;1.70;1.60;;;;;;;;;;5040456;28;20375;-62
2022/08/15 08:20:30;;;;;;;10.65;2.03;;;;;;;;;;5040609;28;20209;-62
2022/08/15 08:23:01;;;;;;;3.15;1.25;;;;;;;;;;5040718;28;20217;-62
2022/08/15 08:25:30;;;;;;;5.20;1.20;;;;;;;;;;5040559;28;20203;-62
2022/08/15 08:28:01;;;;;;;3.70;1.55;;;;;;;;;;5040077;28;20202;-62
2022/08/15 08:30:31;;;;;;;1.10;1.10;;;;;;;;;;5040337;28;20498;-62
2022/08/15 08:32:59;;;;;;;6.32;1.60;;;;;;;;;;5040640;28;20194;-62
2022/08/15 08:35:37;;;;;;;1.90;1.55;;;;;;;;;;5040501;28;20295;-62
2022/08/15 08:38:12;;;;;;;2.00;1.38;;;;;;;;;;5040112;28;20197;-62
2022/08/15 08:43:32;;;;;;;1.10;1.10;;;;;;;;;;5040120;28;20538;-62
2022/08/15 08:46:01;;;;;;;1.58;1.05;;;;;;;;;;5040196;28;20197;-62
2022/08/15 08:48:33;;;;;;;1.20;1.10;;;;;;;;;;5040071;28;20291;-61
2022/08/15 08:51:03;;;;;;;0.80;0.80;;;;;;;;;;5040219;28;20198;-62
2022/08/15 08:53:33;;;;;;;1.70;1.10;;;;;;;;;;5039904;28;20231;-62
2022/08/15 08:56:00;;;;;;;1.30;1.30;;;;;;;;;;5039973;28;20205;-62
2022/08/15 08:58:30;;;;;;;7.55;4.65;;;;;;;;;;5040090;28;20557;-62
2022/08/15 09:00:58;;;;;;;1.60;1.58;;;;;;;;;;5039994;28;20208;-62
2022/08/15 09:03:27;;;;;;;1.35;1.35;;;;;;;;;;5040163;28;20201;-61
2022/08/15 09:05:55;;;;;;;10.32;1.50;;;;;;;;;;5039723;28;20217;-62
2022/08/15 09:08:24;;;;;;;13.10;1.35;;;;;;;;;;5039304;28;20202;-62
2022/08/15 09:10:54;;;;;;;1.13;1.00;;;;;;;;;;5039171;28;20227;-62
2022/08/15 09:13:37;;;;;;;1.00;1.00;;;;;;;;;;5038895;28;20390;-61
2022/08/15 09:16:06;;;;;;;2.25;1.17;;;;;;;;;;5039932;28;20204;-62
2022/08/15 09:18:34;;;;;;;1.58;1.30;;;;;;;;;;5039456;28;20197;-62
2022/08/15 09:21:02;;;;;;;11.52;2.78;;;;;;;;;;5039758;28;20209;-61
2022/08/15 09:23:35;;;;;;;1.02;1.02;;;;;;;;;;5039573;28;20550;-62
2022/08/15 09:26:07;;;;;;;1.15;1.05;;;;;;;;;;5039340;28;20201;-62
2022/08/15 09:28:35;;;;;;;2.05;1.73;;;;;;;;;;5039505;28;20497;-62
2022/08/15 09:31:04;;;;;;;4.38;1.20;;;;;;;;;;5039214;28;20235;-61
2022/08/15 09:33:42;;;;;;;3.15;1.20;;;;;;;;;;5039525;28;20219;-62
2022/08/15 09:36:20;;;;;;;1.83;1.20;;;;;;;;;;5039777;28;20238;-63
2022/08/15 09:38:52;;;;;;;1.70;1.50;;;;;;;;;;5039536;28;20204;-62
2022/08/15 09:41:29;;;;;;;1.35;1.25;;;;;;;;;;5039364;28;20242;-63
2022/08/15 09:44:13;;;;;;;1.52;1.40;;;;;;;;;;5039395;28;20224;-62
2022/08/15 09:46:55;;;;;;;4.57;1.52;;;;;;;;;;5039115;28;20197;-62
2022/08/15 09:49:32;;;;;;;1.60;1.10;;;;;;;;;;5039408;28;20197;-62
2022/08/15 09:52:04;;;;;;;1.40;0.98;;;;;;;;;;5039403;28;20193;-62
2022/08/15 09:54:33;;;;;;;14.45;1.73;;;;;;;;;;5039253;28;20225;-63
2022/08/15 09:57:14;;;;;;;68.35;3.58;;;;;;;;;;5038846;28;20197;-62
2022/08/15 09:59:42;;;;;;;3.55;1.20;;;;;;;;;;5038887;27;20234;-63
2022/08/15 10:02:19;;;;;;;1.05;1.00;;;;;;;;;;5038888;28;20454;-62
2022/08/15 10:05:00;;;;;;;1.30;1.30;;;;;;;;;;5038928;28;20422;-62
2022/08/15 10:07:31;;;;;;;1.17;0.95;;;;;;;;;;5038360;28;20201;-62
2022/08/15 10:10:09;;;;;;;3.15;0.90;;;;;;;;;;5038845;28;20206;-62
2022/08/15 10:12:37;;;;;;;1.10;1.10;;;;;;;;;;5038800;28;20214;-62
2022/08/15 10:15:30;;;;;;;5.30;1.20;;;;;;;;;;5039134;28;20539;-62
2022/08/15 10:17:57;;;;;;;1.35;1.02;;;;;;;;;;5038900;28;20205;-62
2022/08/15 10:20:51;;;;;;;1.20;1.20;;;;;;;;;;5038936;28;20197;-62
2022/08/15 10:23:17;;;;;;;3.03;1.13;;;;;;;;;;5050589;28;20439;-62
2022/08/15 10:25:46;;;;;;;1.42;1.33;;;;;;;;;;5040553;28;20242;-62
2022/08/15 10:28:22;;;;;;;2.53;1.20;;;;;;;;;;5042330;28;20569;-62
2022/08/15 10:31:14;;;;;;;1.30;1.30;;;;;;;;;;5042630;28;20211;-61
2022/08/15 10:33:44;;;;;;;1.13;1.00;;;;;;;;;;5042605;28;20242;-62
2022/08/15 10:36:17;;;;;;;1.38;1.38;;;;;;;;;;5042748;28;20557;-62
2022/08/15 10:38:45;;;;;;;1.50;1.40;;;;;;;;;;5042366;28;20197;-62
2022/08/15 10:41:17;;;;;;;2.72;1.17;;;;;;;;;;5042263;28;20198;-62
2022/08/15 10:43:52;;;;;;;1.95;1.10;;;;;;;;;;5042122;28;20224;-62
2022/08/15 10:46:23;;;;;;;1.48;1.15;;;;;;;;;;5041855;28;20254;-62
2022/08/15 10:48:56;;;;;;;1.48;1.45;;;;;;;;;;5042169;28;20229;-62
2022/08/15 10:51:31;;;;;;;1.48;1.48;;;;;;;;;;5042114;28;20197;-62
2022/08/15 10:54:02;;;;;;;0.93;0.93;;;;;;;;;;5041970;28;20381;-62
2022/08/15 10:56:32;;;;;;;1.38;1.27;;;;;;;;;;5041704;28;20226;-62
2022/08/15 10:59:01;;;;;;;1.00;1.00;;;;;;;;;;5042053;28;20238;-62
2022/08/15 11:01:31;;;;;;;1.85;1.10;;;;;;;;;;5041871;28;20197;-62
2022/08/15 11:04:01;;;;;;;3.03;1.35;;;;;;;;;;5042007;28;20201;-62
2022/08/15 11:06:28;;;;;;;1.25;1.17;;;;;;;;;;5041407;28;20519;-62
2022/08/15 11:08:56;;;;;;;1.17;1.10;;;;;;;;;;5041565;28;20411;-62
2022/08/15 11:11:24;;;;;;;1.38;1.30;;;;;;;;;;5042019;28;20243;-62
2022/08/15 11:13:52;;;;;;;1.13;1.13;;;;;;;;;;5041929;28;20413;-62
2022/08/15 11:16:25;;;;;;;2.25;1.33;;;;;;;;;;5041520;28;20237;-62
2022/08/15 11:18:54;;;;;;;1.75;1.25;;;;;;;;;;5041679;28;20232;-62
2022/08/15 11:21:27;;;;;;;1.25;1.25;;;;;;;;;;5041547;28;20198;-62
2022/08/15 11:23:55;;;;;;;1.33;1.23;;;;;;;;;;5041641;28;20217;-62
2022/08/15 11:26:23;;;;;;;1.27;1.27;;;;;;;;;;5041452;28;20387;-62
2022/08/15 11:28:55;;;;;;;1.55;1.33;;;;;;;;;;5041685;28;20221;-62
2022/08/15 11:31:21;;;;;;;1.70;1.60;;;;;;;;;;5041837;28;20201;-62
2022/08/15 11:33:49;;;;;;;1.60;1.25;;;;;;;;;;5041505;28;20194;-62
2022/08/15 11:36:18;;;;;;;1.20;1.20;;;;;;;;;;5040811;28;20204;-62
2022/08/15 11:38:45;;;;;;;37.72;29.00;;;;;;;;;;5041567;28;20197;-63
2022/08/15 11:41:18;;;;;;;2.30;2.10;;;;;;;;;;5041469;28;20219;-63
2022/08/15 11:43:44;;;;;;;2.58;1.80;;;;;;;;;;5041671;28;20218;-62
2022/08/15 11:46:10;;;;;;;2.40;2.20;;;;;;;;;;5041027;28;20197;-62
2022/08/15 11:48:39;;;;;;;3.72;1.88;;;;;;;;;;5041480;28;20202;-62
2022/08/15 11:51:06;;;;;;;8.57;2.90;;;;;;;;;;5041069;28;20205;-62
2022/08/15 11:53:36;;;;;;;1.73;1.67;;;;;;;;;;5040787;28;20201;-62
2022/08/15 11:56:03;;;;;;;7.63;1.95;;;;;;;;;;5040976;28;20197;-62
2022/08/15 11:58:31;;;;;;;3.05;2.28;;;;;;;;;;5041004;28;20197;-62
2022/08/15 12:00:59;;;;;;;7.20;2.60;;;;;;;;;;5040851;28;20197;-61
2022/08/15 12:03:27;;;;;;;2.97;1.60;;;;;;;;;;5041032;28;20232;-61
2022/08/15 12:05:55;;;;;;;15.20;10.73;;;;;;;;;;5040914;28;20513;-62
2022/08/15 12:08:24;;;;;;;3.30;2.05;;;;;;;;;;5040971;28;20205;-63
2022/08/15 12:10:52;;;;;;;1.80;1.70;;;;;;;;;;5040711;28;20205;-63
2022/08/15 12:13:23;;;;;;;2.20;1.95;;;;;;;;;;5040872;28;20197;-62
2022/08/15 12:15:49;;;;;;;2.28;2.08;;;;;;;;;;5040685;28;20205;-63
2022/08/15 12:18:32;;;;;;;2.30;2.30;;;;;;;;;;5040756;28;20197;-63
2022/08/15 12:21:07;;;;;;;5.05;2.13;;;;;;;;;;5040714;28;20208;-63
2022/08/15 12:23:35;;;;;;;2.30;2.20;;;;;;;;;;5040513;28;20280;-63
2022/08/15 12:26:04;;;;;;;2.17;2.08;;;;;;;;;;5040306;28;20508;-63
2022/08/15 12:28:31;;;;;;;18.23;11.55;;;;;;;;;;5040680;28;20197;-62
2022/08/15 12:30:59;;;;;;;3.08;2.88;;;;;;;;;;5040742;28;20219;-63
2022/08/15 12:33:25;;;;;;;5.30;2.72;;;;;;;;;;5040630;28;20193;-62
2022/08/15 12:35:52;;;;;;;2.40;2.30;;;;;;;;;;5040611;28;20197;-63
2022/08/15 12:38:19;;;;;;;5.65;2.42;;;;;;;;;;5040219;28;20269;-62
2022/08/15 12:40:48;;;;;;;2.75;2.33;;;;;;;;;;5040243;28;20284;-64
2022/08/15 12:43:16;;;;;;;2.08;1.98;;;;;;;;;;5040382;28;20293;-62
2022/08/15 12:45:42;;;;;;;2.50;2.40;;;;;;;;;;5040444;28;20549;-62
2022/08/15 12:48:16;;;;;;;4.60;2.17;;;;;;;;;;5039448;28;20501;-65
2022/08/15 12:50:42;;;;;;;2.15;2.05;;;;;;;;;;5040290;28;20242;-63
2022/08/15 12:53:08;;;;;;;4.47;4.18;;;;;;;;;;5039865;28;20205;-62
2022/08/15 12:55:34;;;;;;;54.97;42.63;;;;;;;;;;5040312;28;20201;-63
2022/08/15 12:58:01;;;;;;;3.88;2.90;;;;;;;;;;5039980;28;20234;-62
2022/08/15 13:00:28;;;;;;;7.63;2.00;;;;;;;;;;5040148;28;20201;-62
2022/08/15 13:02:55;;;;;;;5.85;3.15;;;;;;;;;;5039965;28;20243;-61
2022/08/15 13:05:28;;;;;;;8.13;2.33;;;;;;;;;;5039882;28;20217;-62
2022/08/15 13:07:54;;;;;;;5.90;2.58;;;;;;;;;;5039666;28;20513;-64
2022/08/15 13:10:21;;;;;;;2.78;2.58;;;;;;;;;;5040159;28;20197;-64
2022/08/15 13:12:47;;;;;;;5.57;2.75;;;;;;;;;;5039995;28;20194;-64
2022/08/15 13:15:14;;;;;;;2.08;1.52;;;;;;;;;;5039877;28;20242;-64
2022/08/15 13:17:41;;;;;;;1.63;1.63;;;;;;;;;;5039759;28;20201;-64
2022/08/15 13:25:37;;;;;;;8.52;2.90;;;;;;;;;;5039687;28;20256;-65
2022/08/15 13:28:03;;;;;;;3.13;2.40;;;;;;;;;;5038959;28;20465;-71
2022/08/15 13:30:29;;;;;;;5.28;2.15;;;;;;;;;;5039639;28;20197;-71
2022/08/15 13:32:57;;;;;;;5.40;2.05;;;;;;;;;;5039534;28;20280;-71
2022/08/15 13:35:23;;;;;;;2.65;1.90;;;;;;;;;;5040067;28;20374;-71
2022/08/15 13:37:50;;;;;;;1.63;1.50;;;;;;;;;;5039377;28;20505;-71
2022/08/15 13:40:18;;;;;;;1.92;1.83;;;;;;;;;;5039614;28;20205;-71
2022/08/15 13:42:44;;;;;;;1.95;1.83;;;;;;;;;;5039509;28;20213;-71
2022/08/15 13:45:10;;;;;;;1.50;1.50;;;;;;;;;;5039317;28;20420;-71
2022/08/15 13:47:37;;;;;;;1.63;1.52;;;;;;;;;;5039465;28;20209;-71
2022/08/15 13:50:05;;;;;;;1.67;1.58;;;;;;;;;;5039611;28;20379;-71
2022/08/15 13:52:32;;;;;;;2.58;1.70;;;;;;;;;;5039473;28;20225;-71
2022/08/15 13:54:58;;;;;;;2.53;1.67;;;;;;;;;;5039412;28;20209;-71
2022/08/15 13:57:24;;;;;;;2.40;1.73;;;;;;;;;;5039350;28;20242;-71
2022/08/15 13:59:50;;;;;;;1.65;1.63;;;;;;;;;;5040740;28;20197;-71
2022/08/15 14:02:17;;;;;;;2.13;1.92;;;;;;;;;;5042986;28;20201;-71
2022/08/15 14:04:44;;;;;;;2.10;1.98;;;;;;;;;;5043044;28;20221;-71
2022/08/15 14:07:14;;;;;;;2.83;2.00;;;;;;;;;;5042628;28;20426;-71
2022/08/15 14:09:41;;;;;;;1.88;1.75;;;;;;;;;;5042932;28;20489;-71
2022/08/15 14:12:09;;;;;;;4.40;1.70;;;;;;;;;;5042566;28;20264;-71
2022/08/15 14:14:35;;;;;;;1.88;1.77;;;;;;;;;;5042522;28;20202;-71
2022/08/15 14:17:02;;;;;;;3.80;1.90;;;;;;;;;;5042620;28;20198;-71
2022/08/15 14:19:29;;;;;;;2.13;2.03;;;;;;;;;;5042665;28;20205;-71
2022/08/15 14:21:56;;;;;;;2.90;1.75;;;;;;;;;;5042700;28;20501;-71
2022/08/15 14:24:23;;;;;;;3.25;1.63;;;;;;;;;;5042507;28;20217;-71
2022/08/15 14:26:50;;;;;;;2.63;1.67;;;;;;;;;;5042256;28;20243;-71
2022/08/15 14:29:22;;;;;;;2.85;2.00;;;;;;;;;;5042256;28;20209;-71
2022/08/15 14:31:49;;;;;;;2.22;1.83;;;;;;;;;;5042704;28;20197;-71
2022/08/15 14:34:15;;;;;;;1.90;1.77;;;;;;;;;;5042446;28;20193;-71
2022/08/15 14:36:42;;;;;;;5.40;1.67;;;;;;;;;;5042323;28;20516;-71
2022/08/15 14:39:09;;;;;;;1.80;1.70;;;;;;;;;;5042427;28;20193;-71
2022/08/15 14:41:37;;;;;;;1.40;1.40;;;;;;;;;;5042141;28;20234;-71
2022/08/15 14:44:03;;;;;;;1.70;1.60;;;;;;;;;;5042273;28;20220;-70
2022/08/15 14:46:30;;;;;;;4.72;1.85;;;;;;;;;;5042295;28;20198;-70
2022/08/15 14:48:56;;;;;;;2.03;1.75;;;;;;;;;;5042367;28;20201;-71
2022/08/15 14:51:26;;;;;;;3.97;2.17;;;;;;;;;;5042166;28;20267;-72
2022/08/15 14:53:53;;;;;;;1.75;1.65;;;;;;;;;;5041967;28;20246;-71
2022/08/15 14:56:19;;;;;;;4.55;2.15;;;;;;;;;;5041855;28;20397;-72
2022/08/15 14:58:48;;;;;;;2.78;1.95;;;;;;;;;;5042064;28;20268;-71